Time;durP1;ratioP1;P1;durP2;ratioP2;P2;SDS_P1;SDS_P2;PMS_P1;PMS_P2;Temp;Humidity;BMP_temperature;BMP_pressure;BME280_temperature;BME280_humidity;BME280_pressure;Samples;Min_cycle;Max_cycle;Signal;HPM_P1;HPM_P2
2023/08/13 00:00:30;;;;;;;8.70;7.83;;;;;;;;;;5076337;28;20954;-63
2023/08/13 00:02:57;;;;;;;12.87;8.10;;;;;;;;;;5076376;28;20804;-63
2023/08/13 00:05:25;;;;;;;11.87;8.20;;;;;;;;;;5076322;28;20527;-63
2023/08/13 00:07:52;;;;;;;12.70;8.00;;;;;;;;;;5076069;28;20453;-63
2023/08/13 00:10:20;;;;;;;13.47;8.00;;;;;;;;;;5076193;28;20444;-63
2023/08/13 00:12:47;;;;;;;11.70;7.80;;;;;;;;;;5075692;28;20440;-63
2023/08/13 00:15:16;;;;;;;12.30;8.73;;;;;;;;;;5075922;28;20905;-63
2023/08/13 00:17:43;;;;;;;12.97;7.63;;;;;;;;;;5075683;28;20436;-63
2023/08/13 00:20:11;;;;;;;8.97;8.03;;;;;;;;;;5075972;28;20797;-63
2023/08/13 00:22:38;;;;;;;12.33;9.10;;;;;;;;;;5075751;28;20439;-63
2023/08/13 00:25:07;;;;;;;13.40;8.37;;;;;;;;;;5075658;28;20472;-63
2023/08/13 00:27:34;;;;;;;12.33;8.20;;;;;;;;;;5076054;28;20449;-63
2023/08/13 00:30:01;;;;;;;14.47;8.97;;;;;;;;;;5075877;28;20868;-63
2023/08/13 00:32:30;;;;;;;16.43;8.00;;;;;;;;;;5075977;28;20471;-63
2023/08/13 00:34:57;;;;;;;15.30;8.13;;;;;;;;;;5075869;28;20559;-63
2023/08/13 00:37:24;;;;;;;13.87;9.20;;;;;;;;;;5075636;28;20437;-63
2023/08/13 00:39:51;;;;;;;8.93;7.90;;;;;;;;;;5075767;28;20452;-63
2023/08/13 00:42:19;;;;;;;11.67;8.00;;;;;;;;;;5075199;28;20527;-63
2023/08/13 00:44:46;;;;;;;12.23;8.33;;;;;;;;;;5075835;28;20807;-63
2023/08/13 00:47:14;;;;;;;12.40;9.13;;;;;;;;;;5075179;28;20471;-63
2023/08/13 00:49:42;;;;;;;10.80;8.57;;;;;;;;;;5075321;28;20894;-63
2023/08/13 00:52:10;;;;;;;8.90;8.00;;;;;;;;;;5075595;28;20535;-63
2023/08/13 00:54:37;;;;;;;13.20;10.03;;;;;;;;;;5075663;28;20589;-63
2023/08/13 00:57:04;;;;;;;14.17;9.50;;;;;;;;;;5073876;28;20453;-64
2023/08/13 00:59:33;;;;;;;10.37;8.97;;;;;;;;;;5075402;28;20536;-63
2023/08/13 01:02:01;;;;;;;11.90;8.97;;;;;;;;;;5075489;28;20444;-63
2023/08/13 01:04:28;;;;;;;21.63;9.00;;;;;;;;;;5074771;28;20537;-63
2023/08/13 01:07:03;;;;;;;14.50;8.80;;;;;;;;;;5075270;28;20441;-63
2023/08/13 01:09:37;;;;;;;10.90;9.37;;;;;;;;;;5075110;28;20798;-62
2023/08/13 01:12:07;;;;;;;10.10;9.10;;;;;;;;;;5075817;28;20428;-62
2023/08/13 01:14:42;;;;;;;12.30;8.53;;;;;;;;;;5074809;28;20984;-62
2023/08/13 01:17:09;;;;;;;9.43;8.33;;;;;;;;;;5075110;28;20424;-63
2023/08/13 01:19:37;;;;;;;12.83;8.97;;;;;;;;;;5074526;28;20945;-62
2023/08/13 01:22:05;;;;;;;13.97;9.03;;;;;;;;;;5075021;28;20535;-63
2023/08/13 01:24:34;;;;;;;10.47;9.37;;;;;;;;;;5074287;28;20511;-63
2023/08/13 01:27:06;;;;;;;12.63;10.70;;;;;;;;;;5074756;28;20528;-63
2023/08/13 01:29:36;;;;;;;14.00;10.20;;;;;;;;;;5074754;28;20428;-63
2023/08/13 01:32:04;;;;;;;13.77;9.03;;;;;;;;;;5074889;28;20511;-63
2023/08/13 01:34:32;;;;;;;11.80;9.60;;;;;;;;;;5074124;28;21076;-63
2023/08/13 01:37:00;;;;;;;13.53;10.33;;;;;;;;;;5074463;28;20816;-63
2023/08/13 01:39:27;;;;;;;15.37;9.07;;;;;;;;;;5074505;28;20445;-63
2023/08/13 01:41:56;;;;;;;14.20;8.97;;;;;;;;;;5074225;28;20490;-63
2023/08/13 01:44:24;;;;;;;10.00;9.00;;;;;;;;;;5074289;28;20529;-63
2023/08/13 01:46:51;;;;;;;12.23;8.37;;;;;;;;;;5074102;28;20956;-63
2023/08/13 01:49:19;;;;;;;12.80;8.63;;;;;;;;;;5074173;28;20437;-63
2023/08/13 01:51:46;;;;;;;11.43;9.27;;;;;;;;;;5074275;28;20447;-63
2023/08/13 01:54:14;;;;;;;10.93;9.73;;;;;;;;;;5074154;28;20479;-63
2023/08/13 01:56:41;;;;;;;13.83;9.53;;;;;;;;;;5073842;28;20443;-63
2023/08/13 01:59:09;;;;;;;9.77;8.80;;;;;;;;;;5074051;28;20545;-63
2023/08/13 02:01:37;;;;;;;16.33;10.37;;;;;;;;;;5073961;28;20536;-63
2023/08/13 02:04:04;;;;;;;12.10;9.77;;;;;;;;;;5073673;28;20970;-64
2023/08/13 02:06:33;;;;;;;13.00;9.33;;;;;;;;;;5073907;28;20555;-63
2023/08/13 02:09:00;;;;;;;10.13;9.07;;;;;;;;;;5073924;28;20790;-63
2023/08/13 02:11:27;;;;;;;12.83;9.30;;;;;;;;;;5073620;28;20450;-63
2023/08/13 02:13:55;;;;;;;11.70;8.63;;;;;;;;;;5073352;28;20570;-63
2023/08/13 02:16:23;;;;;;;12.23;9.17;;;;;;;;;;5073812;28;20536;-63
2023/08/13 02:18:51;;;;;;;15.50;8.57;;;;;;;;;;5074134;28;20531;-63
2023/08/13 02:21:19;;;;;;;15.20;9.50;;;;;;;;;;5073713;28;20955;-63
2023/08/13 02:23:47;;;;;;;10.93;8.53;;;;;;;;;;5073583;28;20456;-63
2023/08/13 02:26:14;;;;;;;15.43;8.87;;;;;;;;;;5073610;28;20450;-64
2023/08/13 02:28:43;;;;;;;10.13;8.60;;;;;;;;;;5073147;28;20445;-63
2023/08/13 02:31:10;;;;;;;15.40;8.80;;;;;;;;;;5073515;28;20437;-63
2023/08/13 02:33:39;;;;;;;12.43;9.23;;;;;;;;;;5073278;28;20789;-63
2023/08/13 02:36:06;;;;;;;11.80;8.97;;;;;;;;;;5073538;28;20440;-64
2023/08/13 02:38:34;;;;;;;9.60;8.13;;;;;;;;;;5073729;28;20540;-64
2023/08/13 02:41:01;;;;;;;10.40;9.00;;;;;;;;;;5073130;28;20446;-64
2023/08/13 02:43:29;;;;;;;10.30;8.20;;;;;;;;;;5072888;28;20940;-65
2023/08/13 02:45:56;;;;;;;10.33;8.47;;;;;;;;;;5073582;28;20440;-62
2023/08/13 02:48:23;;;;;;;11.70;8.43;;;;;;;;;;5073161;28;20501;-64
2023/08/13 02:50:52;;;;;;;11.57;8.20;;;;;;;;;;5072829;28;20525;-62
2023/08/13 02:53:19;;;;;;;8.53;7.67;;;;;;;;;;5073036;28;20473;-62
2023/08/13 02:55:46;;;;;;;8.73;7.83;;;;;;;;;;5073116;28;20474;-63
2023/08/13 02:58:13;;;;;;;13.40;8.03;;;;;;;;;;5072873;28;20429;-62
2023/08/13 03:00:40;;;;;;;8.63;7.83;;;;;;;;;;5073068;28;20746;-63
2023/08/13 03:03:07;;;;;;;12.47;8.07;;;;;;;;;;5073155;28;20447;-64
2023/08/13 03:05:35;;;;;;;10.33;7.30;;;;;;;;;;5073144;28;20443;-63
2023/08/13 03:08:03;;;;;;;16.33;7.57;;;;;;;;;;5073215;28;20531;-63
2023/08/13 03:10:31;;;;;;;9.33;7.33;;;;;;;;;;5073048;28;20440;-63
2023/08/13 03:12:58;;;;;;;8.57;7.57;;;;;;;;;;5072999;28;20529;-63
2023/08/13 03:15:25;;;;;;;7.50;6.70;;;;;;;;;;5072831;28;20479;-63
2023/08/13 03:17:52;;;;;;;14.17;7.97;;;;;;;;;;5073059;28;20446;-63
2023/08/13 03:20:19;;;;;;;15.63;8.00;;;;;;;;;;5072278;28;20539;-63
2023/08/13 03:22:46;;;;;;;14.20;8.80;;;;;;;;;;5072573;28;20436;-63
2023/08/13 03:25:15;;;;;;;12.13;7.60;;;;;;;;;;5072711;28;20886;-63
2023/08/13 03:27:42;;;;;;;15.47;8.80;;;;;;;;;;5072519;28;21009;-63
2023/08/13 03:30:10;;;;;;;9.63;7.70;;;;;;;;;;5072802;28;20903;-63
2023/08/13 03:32:37;;;;;;;11.03;8.20;;;;;;;;;;5072552;28;20443;-63
2023/08/13 03:35:04;;;;;;;12.83;8.20;;;;;;;;;;5072353;28;20570;-63
2023/08/13 03:37:31;;;;;;;10.03;7.70;;;;;;;;;;5072933;28;20459;-64
2023/08/13 03:39:59;;;;;;;10.20;7.87;;;;;;;;;;5072611;28;20954;-63
2023/08/13 03:42:27;;;;;;;12.87;7.00;;;;;;;;;;5072752;28;20446;-63
2023/08/13 03:44:54;;;;;;;8.87;8.07;;;;;;;;;;5072703;28;20527;-64
2023/08/13 03:47:22;;;;;;;11.60;7.70;;;;;;;;;;5072771;28;20451;-63
2023/08/13 03:49:49;;;;;;;7.77;6.43;;;;;;;;;;5071509;28;20445;-63
2023/08/13 03:52:16;;;;;;;11.50;5.93;;;;;;;;;;5086428;28;20438;-64
2023/08/13 03:54:43;;;;;;;12.90;7.60;;;;;;;;;;5092431;28;20586;-63
2023/08/13 03:57:10;;;;;;;11.80;6.53;;;;;;;;;;5092394;28;20458;-63
2023/08/13 03:59:39;;;;;;;10.57;7.70;;;;;;;;;;5092150;28;20450;-64
2023/08/13 04:02:06;;;;;;;14.57;8.03;;;;;;;;;;5092630;28;20534;-63
2023/08/13 04:04:33;;;;;;;11.23;7.70;;;;;;;;;;5092241;28;20545;-63
2023/08/13 04:07:00;;;;;;;11.47;7.90;;;;;;;;;;5092437;28;20789;-64
2023/08/13 04:09:28;;;;;;;8.27;6.73;;;;;;;;;;5092570;28;20478;-64
2023/08/13 04:11:55;;;;;;;10.73;7.60;;;;;;;;;;5092071;28;20958;-64
2023/08/13 04:14:22;;;;;;;16.73;7.50;;;;;;;;;;5092528;28;20480;-63
2023/08/13 04:16:51;;;;;;;17.03;8.23;;;;;;;;;;5092125;28;20919;-64
2023/08/13 04:19:18;;;;;;;9.30;7.57;;;;;;;;;;5092297;28;20446;-64
2023/08/13 04:21:45;;;;;;;11.93;8.20;;;;;;;;;;5091904;28;20960;-64
2023/08/13 04:24:12;;;;;;;15.53;8.03;;;;;;;;;;5092467;28;20541;-63
2023/08/13 04:26:39;;;;;;;10.43;7.97;;;;;;;;;;5092000;28;21021;-63
2023/08/13 04:29:08;;;;;;;10.23;7.60;;;;;;;;;;5092222;28;20443;-64
2023/08/13 04:31:35;;;;;;;14.20;7.30;;;;;;;;;;5093433;28;20447;-64
2023/08/13 04:34:03;;;;;;;12.53;6.93;;;;;;;;;;5095338;28;20478;-64
2023/08/13 04:36:31;;;;;;;8.80;7.90;;;;;;;;;;5095785;28;20522;-64
2023/08/13 04:38:58;;;;;;;10.60;7.80;;;;;;;;;;5095584;28;20523;-63
2023/08/13 04:41:25;;;;;;;8.60;7.10;;;;;;;;;;5095430;28;20873;-63
2023/08/13 04:43:52;;;;;;;13.13;7.80;;;;;;;;;;5095598;28;20430;-63
2023/08/13 04:46:19;;;;;;;11.63;7.10;;;;;;;;;;5095799;28;21000;-64
2023/08/13 04:48:47;;;;;;;10.67;7.50;;;;;;;;;;5094988;28;20453;-64
2023/08/13 04:51:16;;;;;;;13.40;6.63;;;;;;;;;;5095497;28;20854;-63
2023/08/13 04:53:43;;;;;;;10.10;6.90;;;;;;;;;;5095884;28;20477;-63
2023/08/13 04:56:11;;;;;;;11.83;7.60;;;;;;;;;;5095018;28;20491;-63
2023/08/13 04:58:38;;;;;;;9.37;6.13;;;;;;;;;;5095500;28;20531;-63
2023/08/13 05:01:05;;;;;;;12.93;7.17;;;;;;;;;;5095112;28;20442;-64
2023/08/13 05:03:33;;;;;;;9.67;7.27;;;;;;;;;;5095452;28;20854;-64
2023/08/13 05:06:00;;;;;;;11.97;7.33;;;;;;;;;;5095243;28;20549;-63
2023/08/13 05:08:29;;;;;;;11.30;6.63;;;;;;;;;;5095241;28;20521;-63
2023/08/13 05:10:56;;;;;;;11.10;7.67;;;;;;;;;;5094907;28;20454;-64
2023/08/13 05:13:23;;;;;;;12.53;7.40;;;;;;;;;;5095035;28;20438;-63
2023/08/13 05:15:50;;;;;;;12.87;7.40;;;;;;;;;;5094974;28;20931;-64
2023/08/13 05:18:17;;;;;;;9.43;6.60;;;;;;;;;;5095255;28;20451;-64
2023/08/13 05:20:45;;;;;;;19.97;8.10;;;;;;;;;;5095265;28;20526;-63
2023/08/13 05:23:12;;;;;;;13.83;7.70;;;;;;;;;;5094994;28;20440;-64
2023/08/13 05:25:40;;;;;;;8.13;6.03;;;;;;;;;;5094807;28;20533;-64
2023/08/13 05:28:08;;;;;;;11.13;6.37;;;;;;;;;;5094997;28;20795;-64
2023/08/13 05:30:35;;;;;;;13.90;7.00;;;;;;;;;;5095066;28;20431;-63
2023/08/13 05:33:02;;;;;;;16.13;7.03;;;;;;;;;;5094947;28;20533;-63
2023/08/13 05:35:30;;;;;;;12.33;7.00;;;;;;;;;;5095048;28;20487;-63
2023/08/13 05:37:57;;;;;;;7.20;5.60;;;;;;;;;;5094653;28;20528;-63
2023/08/13 05:40:24;;;;;;;18.43;7.50;;;;;;;;;;5094857;28;21003;-63
2023/08/13 05:42:53;;;;;;;9.87;6.20;;;;;;;;;;5094099;28;20538;-63
2023/08/13 05:45:20;;;;;;;9.60;5.73;;;;;;;;;;5094952;28;20541;-63
2023/08/13 05:47:47;;;;;;;14.23;6.23;;;;;;;;;;5094261;28;20437;-63
2023/08/13 05:50:14;;;;;;;8.03;5.50;;;;;;;;;;5094236;28;20534;-63
2023/08/13 05:52:42;;;;;;;8.63;5.67;;;;;;;;;;5094428;28;20438;-64
2023/08/13 05:55:09;;;;;;;13.17;5.70;;;;;;;;;;5094010;28;20581;-63
2023/08/13 05:57:36;;;;;;;12.63;5.10;;;;;;;;;;5094334;28;20526;-63
2023/08/13 06:00:09;;;;;;;8.10;4.77;;;;;;;;;;5094668;28;20442;-64
2023/08/13 06:02:37;;;;;;;6.07;4.70;;;;;;;;;;5094067;28;20422;-63
2023/08/13 06:05:04;;;;;;;8.87;5.07;;;;;;;;;;5095039;28;20528;-63
2023/08/13 06:07:31;;;;;;;14.90;5.00;;;;;;;;;;5093992;28;20453;-64
2023/08/13 06:09:58;;;;;;;14.30;5.27;;;;;;;;;;5093742;28;20437;-64
2023/08/13 06:12:26;;;;;;;8.90;4.77;;;;;;;;;;5093990;28;20783;-63
2023/08/13 06:14:53;;;;;;;14.70;5.57;;;;;;;;;;5094007;28;20452;-63
2023/08/13 06:17:21;;;;;;;11.70;5.40;;;;;;;;;;5092766;28;20440;-62
2023/08/13 06:19:48;;;;;;;9.60;5.40;;;;;;;;;;5092732;28;20961;-63
2023/08/13 06:22:16;;;;;;;13.20;5.53;;;;;;;;;;5092936;28;20526;-64
2023/08/13 06:24:43;;;;;;;14.30;5.33;;;;;;;;;;5093192;28;20539;-64
2023/08/13 06:27:11;;;;;;;11.63;5.43;;;;;;;;;;5093044;28;20487;-64
2023/08/13 06:29:38;;;;;;;12.50;4.93;;;;;;;;;;5093312;28;20446;-63
2023/08/13 06:32:05;;;;;;;8.87;4.70;;;;;;;;;;5092972;28;20439;-64
2023/08/13 06:34:34;;;;;;;10.93;5.40;;;;;;;;;;5093526;28;20531;-64
2023/08/13 06:37:03;;;;;;;8.33;4.40;;;;;;;;;;5092904;28;20475;-64
2023/08/13 06:39:30;;;;;;;12.00;4.60;;;;;;;;;;5093586;28;20491;-70
2023/08/13 06:41:58;;;;;;;13.67;4.73;;;;;;;;;;5093297;28;20486;-64
2023/08/13 06:44:26;;;;;;;9.97;4.30;;;;;;;;;;5093304;28;20941;-64
2023/08/13 06:46:53;;;;;;;11.53;3.90;;;;;;;;;;5093338;28;20539;-68
2023/08/13 06:49:20;;;;;;;10.00;4.37;;;;;;;;;;5093286;28;20468;-67
2023/08/13 06:51:49;;;;;;;9.57;3.87;;;;;;;;;;5093436;28;20439;-67
2023/08/13 06:54:16;;;;;;;7.53;3.77;;;;;;;;;;5083004;28;20486;-68
2023/08/13 06:56:43;;;;;;;10.67;4.30;;;;;;;;;;5072280;28;20573;-67
2023/08/13 06:59:10;;;;;;;13.07;4.23;;;;;;;;;;5072666;28;20530;-67
2023/08/13 07:01:37;;;;;;;10.17;3.87;;;;;;;;;;5073182;28;20975;-67
2023/08/13 07:04:06;;;;;;;7.13;3.40;;;;;;;;;;5072752;28;20528;-67
2023/08/13 07:06:33;;;;;;;6.67;3.60;;;;;;;;;;5073021;28;20844;-68
2023/08/13 07:09:03;;;;;;;14.90;5.00;;;;;;;;;;5072708;28;20440;-68
2023/08/13 07:11:32;;;;;;;8.30;3.03;;;;;;;;;;5073436;28;20535;-67
2023/08/13 07:13:59;;;;;;;15.23;3.50;;;;;;;;;;5072529;28;20433;-67
2023/08/13 07:16:26;;;;;;;8.40;4.00;;;;;;;;;;5072731;28;21015;-67
2023/08/13 07:18:54;;;;;;;12.10;4.20;;;;;;;;;;5072798;28;20539;-67
2023/08/13 07:21:21;;;;;;;7.20;2.63;;;;;;;;;;5072818;28;20538;-68
2023/08/13 07:23:48;;;;;;;7.63;3.50;;;;;;;;;;5072677;28;20436;-68
2023/08/13 07:26:17;;;;;;;8.60;3.37;;;;;;;;;;5072716;28;20464;-68
2023/08/13 07:28:44;;;;;;;8.57;4.70;;;;;;;;;;5072555;28;21000;-67
2023/08/13 07:31:11;;;;;;;9.77;3.63;;;;;;;;;;5073012;28;20748;-67
2023/08/13 07:33:39;;;;;;;15.23;3.17;;;;;;;;;;5072796;28;20535;-68
2023/08/13 07:36:06;;;;;;;7.37;3.77;;;;;;;;;;5072419;28;21061;-66
2023/08/13 07:38:34;;;;;;;5.30;4.03;;;;;;;;;;5072194;28;20468;-66
2023/08/13 07:41:03;;;;;;;9.47;3.60;;;;;;;;;;5072330;28;20468;-66
2023/08/13 07:43:31;;;;;;;8.97;3.33;;;;;;;;;;5071611;28;20437;-66
2023/08/13 07:45:59;;;;;;;5.70;3.10;;;;;;;;;;5072396;28;20949;-66
2023/08/13 07:48:26;;;;;;;8.90;3.30;;;;;;;;;;5090441;28;20442;-66
2023/08/13 07:50:53;;;;;;;7.57;3.50;;;;;;;;;;5092285;28;20458;-66
2023/08/13 07:53:21;;;;;;;12.37;3.90;;;;;;;;;;5092410;28;20475;-66
2023/08/13 07:55:49;;;;;;;7.83;3.80;;;;;;;;;;5092745;28;20471;-66
2023/08/13 07:58:16;;;;;;;7.90;3.00;;;;;;;;;;5092654;28;20454;-66
2023/08/13 08:00:45;;;;;;;7.00;3.30;;;;;;;;;;5092080;28;20451;-66
2023/08/13 08:03:12;;;;;;;4.23;2.80;;;;;;;;;;5091852;28;20441;-66
2023/08/13 08:05:40;;;;;;;7.07;3.03;;;;;;;;;;5094698;28;20549;-66
2023/08/13 08:08:08;;;;;;;6.67;3.43;;;;;;;;;;5096487;28;20800;-66
2023/08/13 08:10:35;;;;;;;8.20;2.97;;;;;;;;;;5096390;28;20795;-66
2023/08/13 08:13:02;;;;;;;10.80;2.67;;;;;;;;;;5095471;28;20502;-66
2023/08/13 08:15:29;;;;;;;7.40;2.93;;;;;;;;;;5095906;28;20466;-66
2023/08/13 08:17:58;;;;;;;7.20;3.60;;;;;;;;;;5095329;28;20988;-66
2023/08/13 08:20:25;;;;;;;12.17;3.50;;;;;;;;;;5095558;28;20442;-67
2023/08/13 08:22:52;;;;;;;7.60;3.10;;;;;;;;;;5095510;28;20451;-67
2023/08/13 08:25:20;;;;;;;8.10;3.17;;;;;;;;;;5096282;28;20435;-67
2023/08/13 08:27:47;;;;;;;6.30;2.87;;;;;;;;;;5096216;28;20440;-66
2023/08/13 08:30:14;;;;;;;11.47;3.97;;;;;;;;;;5095965;28;20471;-66
2023/08/13 08:32:41;;;;;;;9.50;3.40;;;;;;;;;;5096242;28;20474;-67
2023/08/13 08:35:10;;;;;;;6.07;2.93;;;;;;;;;;5096302;28;20549;-67
2023/08/13 08:37:37;;;;;;;9.47;3.50;;;;;;;;;;5095827;28;20558;-66
2023/08/13 08:40:05;;;;;;;8.60;3.67;;;;;;;;;;5095459;28;20519;-67
2023/08/13 08:42:32;;;;;;;5.63;3.20;;;;;;;;;;5096041;28;20439;-65
2023/08/13 08:45:00;;;;;;;6.17;2.53;;;;;;;;;;5095543;28;20447;-66
2023/08/13 08:47:27;;;;;;;11.87;3.13;;;;;;;;;;5096025;28;20443;-66
2023/08/13 08:49:55;;;;;;;5.67;3.20;;;;;;;;;;5095954;28;20428;-66
2023/08/13 08:52:24;;;;;;;8.90;3.67;;;;;;;;;;5095769;28;20433;-66
2023/08/13 08:54:51;;;;;;;11.50;3.50;;;;;;;;;;5095787;28;20479;-66
2023/08/13 08:57:19;;;;;;;9.60;3.33;;;;;;;;;;5095170;28;20574;-66
2023/08/13 08:59:46;;;;;;;4.20;2.37;;;;;;;;;;5095220;28;20971;-66
2023/08/13 09:02:14;;;;;;;6.57;2.93;;;;;;;;;;5095389;28;20531;-66
2023/08/13 09:04:41;;;;;;;11.47;2.57;;;;;;;;;;5095662;28;20448;-66
2023/08/13 09:07:08;;;;;;;5.00;2.30;;;;;;;;;;5095332;28;20449;-66
2023/08/13 09:09:37;;;;;;;8.90;3.60;;;;;;;;;;5095047;28;20542;-66
2023/08/13 09:12:05;;;;;;;5.30;2.77;;;;;;;;;;5095441;28;20475;-67
2023/08/13 09:14:32;;;;;;;6.73;4.50;;;;;;;;;;5095490;28;20542;-66
2023/08/13 09:16:59;;;;;;;9.63;3.03;;;;;;;;;;5094216;28;21056;-66
2023/08/13 09:19:27;;;;;;;6.23;2.70;;;;;;;;;;5094855;28;20951;-66
2023/08/13 09:21:55;;;;;;;7.43;3.63;;;;;;;;;;5095125;28;20441;-66
2023/08/13 09:24:32;;;;;;;5.53;2.30;;;;;;;;;;5094685;28;20547;-66
2023/08/13 09:27:01;;;;;;;5.20;2.30;;;;;;;;;;5095005;28;20436;-66
2023/08/13 09:29:29;;;;;;;5.23;2.37;;;;;;;;;;5094703;28;20449;-67
2023/08/13 09:31:57;;;;;;;11.00;3.40;;;;;;;;;;5095822;28;20446;-66
2023/08/13 09:34:25;;;;;;;4.93;2.60;;;;;;;;;;5094959;28;20835;-66
2023/08/13 09:36:53;;;;;;;5.93;3.03;;;;;;;;;;5094780;28;20578;-66
2023/08/13 09:39:21;;;;;;;5.73;2.60;;;;;;;;;;5094508;28;20497;-66
2023/08/13 09:41:55;;;;;;;8.23;2.70;;;;;;;;;;5094499;28;20527;-66
2023/08/13 09:44:25;;;;;;;9.20;3.60;;;;;;;;;;5095149;28;20501;-66
2023/08/13 09:46:53;;;;;;;5.13;2.77;;;;;;;;;;5095293;28;20441;-67
2023/08/13 09:49:22;;;;;;;8.80;2.80;;;;;;;;;;5094667;28;20521;-66
2023/08/13 09:51:50;;;;;;;10.27;3.80;;;;;;;;;;5094621;28;20436;-66
2023/08/13 09:54:24;;;;;;;7.50;2.70;;;;;;;;;;5094092;28;20998;-66
2023/08/13 09:56:55;;;;;;;5.13;2.40;;;;;;;;;;5094529;28;20468;-66
2023/08/13 09:59:23;;;;;;;5.50;2.80;;;;;;;;;;5094814;28;20441;-66
2023/08/13 10:01:51;;;;;;;7.37;2.60;;;;;;;;;;5094434;28;20459;-66
2023/08/13 10:04:18;;;;;;;5.40;2.40;;;;;;;;;;5094777;28;20536;-66
2023/08/13 10:06:46;;;;;;;3.90;3.10;;;;;;;;;;5094195;28;20523;-66
2023/08/13 10:09:14;;;;;;;7.50;2.50;;;;;;;;;;5094001;28;20441;-66
2023/08/13 10:11:41;;;;;;;8.77;2.50;;;;;;;;;;5093982;28;20544;-66
2023/08/13 10:14:08;;;;;;;5.73;2.43;;;;;;;;;;5094290;28;20913;-66
2023/08/13 10:16:39;;;;;;;7.43;2.90;;;;;;;;;;5093727;28;20480;-66
2023/08/13 10:19:07;;;;;;;5.70;3.00;;;;;;;;;;5093934;28;20514;-66
2023/08/13 10:21:35;;;;;;;7.60;3.00;;;;;;;;;;5094192;28;20500;-66
2023/08/13 10:24:03;;;;;;;7.90;2.43;;;;;;;;;;5094424;28;20484;-65
2023/08/13 10:26:31;;;;;;;7.43;2.57;;;;;;;;;;5094104;28;20503;-66
2023/08/13 10:28:58;;;;;;;4.27;2.20;;;;;;;;;;5094166;28;20436;-66
2023/08/13 10:31:27;;;;;;;3.40;2.00;;;;;;;;;;5094404;28;20530;-67
2023/08/13 10:34:11;;;;;;;4.90;2.60;;;;;;;;;;5094351;28;20450;-66
2023/08/13 10:36:51;;;;;;;12.00;2.30;;;;;;;;;;5093441;28;20469;-66
2023/08/13 10:39:31;;;;;;;6.10;2.40;;;;;;;;;;5093733;28;20432;-66
2023/08/13 10:41:58;;;;;;;7.00;3.70;;;;;;;;;;5093589;28;20464;-66
2023/08/13 10:44:29;;;;;;;5.33;2.80;;;;;;;;;;5093620;28;20528;-66
2023/08/13 10:46:56;;;;;;;5.70;2.60;;;;;;;;;;5093457;28;20804;-66
2023/08/13 10:49:26;;;;;;;7.93;3.53;;;;;;;;;;5093676;28;20810;-66
2023/08/13 10:51:53;;;;;;;10.57;3.33;;;;;;;;;;5093137;28;20445;-67
2023/08/13 10:54:21;;;;;;;5.93;2.80;;;;;;;;;;5093541;28;20469;-66
2023/08/13 10:56:54;;;;;;;8.47;3.27;;;;;;;;;;5093720;28;20511;-66
2023/08/13 10:59:28;;;;;;;7.40;2.63;;;;;;;;;;5094028;28;20773;-66
2023/08/13 11:02:14;;;;;;;5.03;2.70;;;;;;;;;;5092664;28;20919;-66
2023/08/13 11:04:44;;;;;;;4.80;2.20;;;;;;;;;;5092958;28;20585;-66
2023/08/13 11:07:11;;;;;;;3.90;2.33;;;;;;;;;;5092571;28;20449;-67
2023/08/13 11:09:39;;;;;;;4.40;2.20;;;;;;;;;;5093045;28;20778;-66
2023/08/13 11:12:07;;;;;;;5.57;2.50;;;;;;;;;;5092815;28;20491;-66
2023/08/13 11:14:34;;;;;;;5.00;2.60;;;;;;;;;;5092856;28;20446;-66
2023/08/13 11:17:01;;;;;;;4.90;2.33;;;;;;;;;;5092963;28;20485;-66
2023/08/13 11:19:28;;;;;;;5.83;2.53;;;;;;;;;;5092922;28;20431;-66
2023/08/13 11:21:57;;;;;;;5.63;2.80;;;;;;;;;;5092827;28;20526;-66
2023/08/13 11:24:25;;;;;;;5.37;2.40;;;;;;;;;;5091412;28;20447;-66
2023/08/13 11:26:52;;;;;;;5.10;2.90;;;;;;;;;;5091790;28;20438;-66
2023/08/13 11:29:20;;;;;;;5.13;2.03;;;;;;;;;;5092649;28;20478;-66
2023/08/13 11:31:48;;;;;;;3.80;2.37;;;;;;;;;;5092848;28;20466;-66
2023/08/13 11:34:15;;;;;;;6.50;2.50;;;;;;;;;;5092382;28;20436;-66
2023/08/13 11:36:43;;;;;;;5.10;2.83;;;;;;;;;;5092771;28;20477;-66
2023/08/13 11:39:11;;;;;;;5.00;2.70;;;;;;;;;;5092883;28;20529;-66
2023/08/13 11:41:38;;;;;;;5.53;2.57;;;;;;;;;;5096586;28;20521;-66
2023/08/13 11:44:10;;;;;;;5.57;2.73;;;;;;;;;;5096728;28;20442;-67
2023/08/13 11:46:56;;;;;;;6.07;2.73;;;;;;;;;;5097141;28;20415;-66
2023/08/13 11:49:24;;;;;;;7.00;2.50;;;;;;;;;;5096268;28;21018;-66
2023/08/13 11:51:51;;;;;;;6.00;3.13;;;;;;;;;;5096376;28;20533;-66
2023/08/13 11:54:20;;;;;;;4.57;2.70;;;;;;;;;;5096021;28;20469;-66
2023/08/13 11:56:50;;;;;;;6.00;2.53;;;;;;;;;;5096418;28;20482;-66
2023/08/13 11:59:23;;;;;;;3.73;2.13;;;;;;;;;;5096220;28;20485;-66
2023/08/13 12:01:52;;;;;;;5.30;2.47;;;;;;;;;;5096652;28;20435;-66
2023/08/13 12:04:19;;;;;;;7.93;3.43;;;;;;;;;;5096186;28;20442;-66
2023/08/13 12:06:47;;;;;;;9.23;3.10;;;;;;;;;;5096514;28;20516;-66
2023/08/13 12:09:20;;;;;;;4.10;2.40;;;;;;;;;;5095415;28;20797;-67
2023/08/13 12:11:49;;;;;;;4.40;2.53;;;;;;;;;;5095590;28;20933;-66
2023/08/13 12:14:16;;;;;;;5.33;2.30;;;;;;;;;;5095336;28;20528;-66
2023/08/13 12:16:43;;;;;;;5.83;2.50;;;;;;;;;;5095452;28;20499;-66
2023/08/13 12:19:10;;;;;;;6.07;3.00;;;;;;;;;;5095436;28;20538;-66
2023/08/13 12:21:41;;;;;;;5.13;2.43;;;;;;;;;;5095395;28;20538;-66
2023/08/13 12:24:08;;;;;;;5.97;2.97;;;;;;;;;;5095246;28;20489;-66
2023/08/13 12:26:35;;;;;;;6.90;2.80;;;;;;;;;;5094746;28;20446;-66
2023/08/13 12:29:04;;;;;;;6.77;2.97;;;;;;;;;;5095226;28;20467;-67
2023/08/13 12:31:31;;;;;;;5.40;2.40;;;;;;;;;;5095286;28;20820;-66
2023/08/13 12:33:59;;;;;;;5.60;2.40;;;;;;;;;;5094993;28;20452;-66
2023/08/13 12:36:26;;;;;;;6.60;2.77;;;;;;;;;;5095648;28;20484;-66
2023/08/13 12:38:53;;;;;;;8.40;2.67;;;;;;;;;;5094774;28;21033;-66
2023/08/13 12:41:20;;;;;;;4.80;2.30;;;;;;;;;;5095381;28;20533;-66
2023/08/13 12:43:48;;;;;;;4.33;2.13;;;;;;;;;;5095308;28;20439;-65
2023/08/13 12:46:16;;;;;;;7.10;3.00;;;;;;;;;;5095531;28;20814;-66
2023/08/13 12:48:45;;;;;;;5.93;2.47;;;;;;;;;;5095780;28;20526;-66
2023/08/13 12:51:12;;;;;;;7.13;2.83;;;;;;;;;;5085597;28;20464;-66
2023/08/13 12:53:40;;;;;;;8.87;3.47;;;;;;;;;;5074426;28;20563;-66
2023/08/13 12:56:07;;;;;;;8.37;2.83;;;;;;;;;;5075187;28;20542;-66
2023/08/13 12:58:34;;;;;;;5.53;2.23;;;;;;;;;;5074655;28;20475;-66
2023/08/13 13:01:02;;;;;;;5.53;2.50;;;;;;;;;;5075093;28;20465;-66
2023/08/13 13:03:30;;;;;;;5.53;2.57;;;;;;;;;;5075039;28;20445;-66
2023/08/13 13:05:57;;;;;;;6.90;2.53;;;;;;;;;;5075212;28;20537;-66
2023/08/13 13:08:25;;;;;;;7.40;2.53;;;;;;;;;;5075034;28;20544;-66
2023/08/13 13:10:52;;;;;;;4.80;2.87;;;;;;;;;;5075377;28;20446;-66
2023/08/13 13:13:19;;;;;;;7.27;2.47;;;;;;;;;;5075334;28;20442;-66
2023/08/13 13:15:47;;;;;;;4.70;2.37;;;;;;;;;;5074724;28;20444;-66
2023/08/13 13:18:14;;;;;;;2.77;2.40;;;;;;;;;;5074726;28;20546;-66
2023/08/13 13:20:43;;;;;;;6.50;2.40;;;;;;;;;;5074498;28;20847;-66
2023/08/13 13:23:10;;;;;;;4.03;2.27;;;;;;;;;;5078545;28;20458;-66
2023/08/13 13:25:38;;;;;;;3.97;2.53;;;;;;;;;;5094590;28;20436;-67
2023/08/13 13:28:05;;;;;;;6.80;2.30;;;;;;;;;;5094611;28;20454;-66
2023/08/13 13:30:33;;;;;;;4.70;2.20;;;;;;;;;;5095315;28;20528;-66
2023/08/13 13:33:01;;;;;;;6.50;2.70;;;;;;;;;;5094777;28;20545;-66
2023/08/13 13:35:28;;;;;;;8.33;3.97;;;;;;;;;;5094823;28;20525;-67
2023/08/13 13:37:57;;;;;;;6.00;2.67;;;;;;;;;;5094722;28;20523;-67
2023/08/13 13:40:25;;;;;;;3.83;2.20;;;;;;;;;;5094903;28;20437;-67
2023/08/13 13:42:54;;;;;;;5.70;2.60;;;;;;;;;;5094221;28;20510;-68
2023/08/13 13:45:22;;;;;;;4.50;2.50;;;;;;;;;;5095044;28;20451;-65
2023/08/13 13:47:49;;;;;;;6.03;2.67;;;;;;;;;;5094231;28;20453;-65
2023/08/13 13:50:16;;;;;;;5.63;2.70;;;;;;;;;;5094405;28;20454;-65
2023/08/13 13:52:44;;;;;;;3.50;2.67;;;;;;;;;;5094295;28;20489;-67
2023/08/13 13:55:13;;;;;;;3.70;2.30;;;;;;;;;;5094642;28;20471;-66
2023/08/13 13:57:40;;;;;;;3.73;2.70;;;;;;;;;;5094786;28;20558;-67
2023/08/13 14:00:08;;;;;;;3.70;2.53;;;;;;;;;;5095060;28;20534;-67
2023/08/13 14:02:35;;;;;;;3.43;2.90;;;;;;;;;;5094202;28;20424;-66
2023/08/13 14:05:03;;;;;;;4.73;2.73;;;;;;;;;;5094389;28;20466;-66
2023/08/13 14:07:31;;;;;;;4.97;2.80;;;;;;;;;;5094436;28;20928;-66
2023/08/13 14:09:58;;;;;;;4.90;2.90;;;;;;;;;;5094089;28;20472;-67
2023/08/13 14:12:27;;;;;;;7.93;2.67;;;;;;;;;;5093947;28;20446;-67
2023/08/13 14:14:54;;;;;;;4.93;2.50;;;;;;;;;;5094225;28;20872;-67
2023/08/13 14:17:21;;;;;;;5.20;3.00;;;;;;;;;;5094293;28;20468;-66
2023/08/13 14:19:48;;;;;;;5.67;2.43;;;;;;;;;;5093945;28;20480;-67
2023/08/13 14:22:15;;;;;;;3.80;2.37;;;;;;;;;;5094177;28;20531;-67
2023/08/13 14:24:43;;;;;;;6.03;2.77;;;;;;;;;;5094081;28;20496;-67
2023/08/13 14:27:10;;;;;;;5.43;2.97;;;;;;;;;;5093728;28;20436;-66
2023/08/13 14:29:39;;;;;;;3.80;2.50;;;;;;;;;;5094105;28;20489;-67
2023/08/13 14:32:07;;;;;;;7.43;2.77;;;;;;;;;;5093748;28;20443;-66
2023/08/13 14:34:34;;;;;;;6.03;2.50;;;;;;;;;;5093313;28;20531;-66
2023/08/13 14:37:01;;;;;;;5.73;2.53;;;;;;;;;;5093363;28;20438;-66
2023/08/13 14:39:29;;;;;;;6.37;2.57;;;;;;;;;;5093457;28;20483;-66
2023/08/13 14:41:57;;;;;;;5.27;2.40;;;;;;;;;;5093626;28;20444;-66